Time;durP1;ratioP1;P1;durP2;ratioP2;P2;SDS_P1;SDS_P2;PMS_P1;PMS_P2;Temp;Humidity;BMP_temperature;BMP_pressure;BME280_temperature;BME280_humidity;BME280_pressure;Samples;Min_cycle;Max_cycle;Signal;HPM_P1;HPM_P2
2021/09/02 00:01:09;;;;;;;6.73;5.13;;;;;;;15.63;83.80;97196.84;5073691;28;20162;-65
2021/09/02 00:03:34;;;;;;;6.23;5.60;;;;;;;15.67;83.67;97198.78;5073166;28;20236;-66
2021/09/02 00:06:00;;;;;;;6.83;6.10;;;;;;;15.62;83.47;97195.25;5073400;28;20202;-61
2021/09/02 00:08:25;;;;;;;7.23;5.70;;;;;;;15.49;84.13;97190.22;5072745;28;20629;-61
2021/09/02 00:10:51;;;;;;;7.37;5.87;;;;;;;15.60;83.68;97189.38;5073471;28;20185;-66
2021/09/02 00:13:16;;;;;;;6.07;5.47;;;;;;;15.61;83.82;97190.97;5073335;28;20574;-61
2021/09/02 00:15:42;;;;;;;6.37;5.77;;;;;;;15.61;83.67;97190.97;5066435;28;20194;-61
2021/09/02 00:18:07;;;;;;;7.70;5.90;;;;;;;15.60;83.52;97190.16;5053459;28;20171;-61
2021/09/02 00:20:33;;;;;;;6.53;5.60;;;;;;;15.59;83.56;97188.56;5053165;28;20179;-66
2021/09/02 00:22:58;;;;;;;6.30;5.70;;;;;;;15.61;83.28;97183.84;5053020;28;20537;-66
2021/09/02 00:25:24;;;;;;;5.27;4.77;;;;;;;15.57;83.48;97185.34;5052911;28;20237;-66
2021/09/02 00:27:49;;;;;;;5.63;5.03;;;;;;;15.56;83.55;97188.25;5053135;28;20172;-66
2021/09/02 00:30:14;;;;;;;5.20;4.70;;;;;;;15.46;84.21;97186.19;5057618;28;20188;-61
2021/09/02 00:32:40;;;;;;;6.17;5.57;;;;;;;15.33;84.01;97181.94;5072737;28;20580;-62
2021/09/02 00:35:06;;;;;;;6.00;5.13;;;;;;;15.41;83.47;97183.44;5073115;28;20187;-66
2021/09/02 00:37:32;;;;;;;5.40;4.87;;;;;;;15.36;83.00;97180.69;5073157;28;20579;-61
2021/09/02 00:39:57;;;;;;;6.00;4.70;;;;;;;15.21;83.63;97186.47;5073183;28;20470;-66
2021/09/02 00:42:23;;;;;;;5.13;4.70;;;;;;;15.10;84.02;97181.19;5073305;28;20228;-67
2021/09/02 00:44:48;;;;;;;5.10;4.70;;;;;;;15.08;84.58;97178.78;5069075;28;20564;-66
2021/09/02 00:47:22;;;;;;;6.17;5.17;;;;;;;15.09;84.91;97174.31;5073110;28;20198;-61
2021/09/02 00:49:47;;;;;;;5.50;5.00;;;;;;;15.17;84.33;97176.56;5073493;28;20194;-66
2021/09/02 00:52:22;;;;;;;5.70;5.10;;;;;;;15.05;84.52;97173.16;5072998;28;20799;-61
2021/09/02 00:54:50;;;;;;;5.97;5.40;;;;;;;15.09;84.61;97167.16;5072486;28;20228;-66
2021/09/02 00:57:20;;;;;;;6.30;5.70;;;;;;;15.08;85.52;97165.56;5075572;28;20843;-61
2021/09/02 00:59:48;;;;;;;6.33;5.70;;;;;;;15.20;84.70;97163.66;5076298;28;20440;-61
2021/09/02 01:02:13;;;;;;;5.90;5.30;;;;;;;15.10;84.59;97166.13;5076901;28;20891;-61
2021/09/02 01:04:38;;;;;;;5.53;5.00;;;;;;;14.88;85.92;97167.78;5076275;28;20579;-61
2021/09/02 01:07:07;;;;;;;5.90;5.30;;;;;;;14.81;86.14;97167.09;5076868;28;20209;-61
2021/09/02 01:09:34;;;;;;;5.40;4.90;;;;;;;14.82;86.25;97159.97;5076766;28;20166;-66
2021/09/02 01:12:26;;;;;;;6.27;5.27;;;;;;;14.84;85.49;97163.19;5076878;28;20494;-66
2021/09/02 01:14:52;;;;;;;7.20;5.07;;;;;;;14.75;85.68;97170.66;5067676;28;20445;-66
2021/09/02 01:17:18;;;;;;;5.80;5.30;;;;;;;14.81;85.60;97168.94;5056433;28;20413;-66
2021/09/02 01:19:44;;;;;;;5.40;4.90;;;;;;;14.85;85.03;97165.59;5056338;28;20908;-66
2021/09/02 01:22:10;;;;;;;5.43;4.93;;;;;;;14.99;84.01;97164.31;5056521;28;20250;-66
2021/09/02 01:24:35;;;;;;;5.90;5.40;;;;;;;15.04;83.44;97164.41;5055821;28;20528;-61
2021/09/02 01:27:00;;;;;;;8.63;5.97;;;;;;;14.86;84.65;97159.25;5056436;28;20192;-66
2021/09/02 01:29:26;;;;;;;6.50;5.77;;;;;;;14.90;84.56;97154.31;5073581;28;20178;-61
2021/09/02 01:31:53;;;;;;;5.30;4.60;;;;;;;14.86;84.15;97164.56;5076200;28;20220;-66
2021/09/02 01:34:18;;;;;;;5.60;5.10;;;;;;;14.84;84.71;97163.19;5075811;28;20233;-61
2021/09/02 01:36:43;;;;;;;5.10;4.70;;;;;;;14.70;84.88;97151.22;5074432;28;20417;-66
2021/09/02 01:39:16;;;;;;;8.60;5.60;;;;;;;14.74;84.72;97150.53;5076391;28;20174;-61
2021/09/02 01:41:41;;;;;;;6.10;5.50;;;;;;;14.78;83.95;97148.22;5076029;28;20510;-66
2021/09/02 01:44:07;;;;;;;7.13;5.23;;;;;;;14.79;84.17;97145.34;5075610;28;20405;-66
2021/09/02 01:46:32;;;;;;;7.77;5.40;;;;;;;14.79;84.02;97144.53;5075938;28;20232;-67
2021/09/02 01:48:57;;;;;;;6.23;5.60;;;;;;;14.79;84.26;97142.69;5075908;28;20198;-66
2021/09/02 01:51:23;;;;;;;5.63;5.13;;;;;;;14.81;83.97;97139.81;5070829;28;20175;-61
2021/09/02 01:53:48;;;;;;;6.90;6.20;;;;;;;14.79;83.94;97145.34;5069328;28;20179;-66
2021/09/02 01:56:13;;;;;;;6.20;5.50;;;;;;;14.67;83.96;97144.56;5075694;28;20236;-66
2021/09/02 01:58:39;;;;;;;5.60;4.77;;;;;;;14.63;84.32;97142.59;5076185;28;20198;-66
2021/09/02 02:01:04;;;;;;;5.50;5.03;;;;;;;14.61;84.51;97145.50;5075758;28;20643;-61
2021/09/02 02:03:29;;;;;;;5.80;5.23;;;;;;;14.59;84.81;97141.44;5075233;28;20579;-61
2021/09/02 02:05:55;;;;;;;5.43;4.93;;;;;;;14.59;84.63;97141.44;5075639;28;20206;-66
2021/09/02 02:08:20;;;;;;;6.00;5.40;;;;;;;14.59;83.96;97136.97;5074562;28;20175;-66
2021/09/02 02:10:46;;;;;;;6.00;5.50;;;;;;;14.64;83.95;97138.94;5075597;28;20170;-62
2021/09/02 02:13:11;;;;;;;5.83;5.33;;;;;;;14.55;83.76;97141.13;5075142;28;20175;-61
2021/09/02 02:15:37;;;;;;;5.90;5.40;;;;;;;14.62;83.58;97136.50;5075406;28;20680;-61
2021/09/02 02:18:02;;;;;;;7.60;5.27;;;;;;;14.60;83.81;97143.06;5074162;28;20178;-61
2021/09/02 02:20:28;;;;;;;5.60;5.10;;;;;;;14.56;83.77;97136.63;5075350;28;20246;-61
2021/09/02 02:22:53;;;;;;;5.37;4.93;;;;;;;14.58;83.79;97134.56;5059156;28;20207;-61
2021/09/02 02:25:19;;;;;;;6.70;6.00;;;;;;;14.59;83.56;97133.50;5054923;28;20203;-66
2021/09/02 02:27:45;;;;;;;6.00;5.50;;;;;;;14.56;83.28;97132.16;5055419;28;20512;-61
2021/09/02 02:30:15;;;;;;;5.70;5.10;;;;;;;14.51;83.77;97132.06;5055186;28;20237;-66
2021/09/02 02:32:42;;;;;;;5.70;5.10;;;;;;;14.46;84.18;97131.91;5054865;28;20405;-66
2021/09/02 02:35:08;;;;;;;5.50;4.90;;;;;;;14.47;84.06;97143.31;5055047;28;20426;-61
2021/09/02 02:37:33;;;;;;;5.47;4.97;;;;;;;14.44;84.09;97134.78;5069645;28;20421;-61
2021/09/02 02:39:59;;;;;;;5.90;5.40;;;;;;;14.44;83.99;97131.34;5075068;28;20416;-66
2021/09/02 02:42:24;;;;;;;6.13;5.43;;;;;;;14.48;84.05;97136.97;5075346;28;20206;-61
2021/09/02 02:44:50;;;;;;;6.07;5.50;;;;;;;14.27;84.53;97135.72;5074382;28;20199;-60
2021/09/02 02:47:15;;;;;;;6.17;5.40;;;;;;;14.27;84.64;97133.09;5073590;28;20229;-61
2021/09/02 02:49:41;;;;;;;6.07;5.27;;;;;;;14.28;84.43;97124.91;5069927;28;20189;-61
2021/09/02 02:52:08;;;;;;;6.07;5.47;;;;;;;14.25;84.64;97127.19;5074643;28;20167;-61
2021/09/02 02:54:34;;;;;;;5.70;5.20;;;;;;;14.08;85.58;97142.09;5074096;28;20183;-62
2021/09/02 02:56:59;;;;;;;5.43;4.93;;;;;;;14.25;84.74;97132.47;5074574;28;20397;-66
2021/09/02 02:59:24;;;;;;;6.23;5.60;;;;;;;14.32;83.96;97131.34;5074746;28;20171;-66
2021/09/02 03:01:50;;;;;;;5.00;4.57;;;;;;;14.26;83.32;97131.41;5073963;28;20182;-66
2021/09/02 03:04:15;;;;;;;5.87;5.37;;;;;;;14.17;84.12;97140.72;5074157;28;20690;-66
2021/09/02 03:06:41;;;;;;;5.60;5.00;;;;;;;14.20;84.02;97135.00;5074452;28;20190;-66
2021/09/02 03:09:06;;;;;;;6.10;4.87;;;;;;;14.16;84.00;97144.41;5074529;28;20698;-61
2021/09/02 03:11:32;;;;;;;7.07;5.30;;;;;;;14.07;84.35;97140.50;5074314;28;20212;-66
2021/09/02 03:13:58;;;;;;;5.93;5.40;;;;;;;14.02;85.14;97138.53;5073992;28;20533;-66
2021/09/02 03:16:23;;;;;;;5.30;4.90;;;;;;;14.03;85.13;97136.69;5060905;28;20241;-66
2021/09/02 03:18:49;;;;;;;6.70;5.73;;;;;;;14.00;85.47;97139.81;5053560;28;20410;-66
2021/09/02 03:21:14;;;;;;;5.23;4.83;;;;;;;14.08;85.28;97134.16;5054374;28;20175;-61
2021/09/02 03:23:39;;;;;;;5.63;5.13;;;;;;;14.12;84.84;97138.78;5053789;28;20741;-61
2021/09/02 03:26:05;;;;;;;5.90;5.27;;;;;;;14.14;84.22;97135.91;5053957;28;20214;-66
2021/09/02 03:28:30;;;;;;;8.50;5.40;;;;;;;14.11;84.08;97125.81;5054072;28;20175;-66
2021/09/02 03:30:56;;;;;;;5.67;5.00;;;;;;;14.07;84.15;97135.22;5064134;28;20205;-61
2021/09/02 03:33:21;;;;;;;7.30;5.67;;;;;;;14.00;83.78;97134.50;5073662;28;20246;-66
2021/09/02 03:35:47;;;;;;;5.30;4.80;;;;;;;14.04;83.77;97127.75;5073563;28;20673;-60
2021/09/02 03:38:12;;;;;;;5.67;5.17;;;;;;;14.06;83.46;97134.41;5054073;28;20180;-66
2021/09/02 03:40:38;;;;;;;6.17;5.13;;;;;;;13.99;83.90;97133.69;5052768;28;20199;-61
2021/09/02 03:43:03;;;;;;;5.70;5.10;;;;;;;13.93;83.97;97136.47;5053497;28;20171;-66
2021/09/02 03:45:29;;;;;;;5.27;4.73;;;;;;;13.95;84.07;97137.03;5053645;28;20197;-66
2021/09/02 03:47:54;;;;;;;6.70;5.60;;;;;;;13.97;83.78;97135.75;5052557;28;20641;-60
2021/09/02 03:50:19;;;;;;;5.67;4.73;;;;;;;14.01;83.26;97136.94;5053711;28;20167;-61
2021/09/02 03:52:45;;;;;;;6.90;6.00;;;;;;;13.92;84.20;97138.28;5071294;28;20606;-61
2021/09/02 03:55:12;;;;;;;5.40;4.90;;;;;;;13.85;84.03;97145.53;5073399;28;20665;-61
2021/09/02 03:57:39;;;;;;;6.17;5.57;;;;;;;13.75;84.83;97139.97;5073802;28;20459;-66
2021/09/02 04:00:06;;;;;;;5.90;5.30;;;;;;;13.71;84.88;97140.66;5073886;28;20455;-61
2021/09/02 04:02:31;;;;;;;5.67;5.17;;;;;;;13.75;84.78;97144.47;5073840;28;20409;-66
2021/09/02 04:04:57;;;;;;;7.27;5.20;;;;;;;13.71;84.94;97145.94;5073112;28;20432;-61
2021/09/02 04:07:22;;;;;;;6.27;5.40;;;;;;;13.73;84.70;97138.59;5072871;28;20198;-66
2021/09/02 04:09:48;;;;;;;5.40;4.90;;;;;;;13.82;84.18;97137.25;5073412;28;20182;-66
2021/09/02 04:12:13;;;;;;;6.07;5.20;;;;;;;13.84;83.90;97140.47;5072132;28;20626;-66
2021/09/02 04:14:38;;;;;;;5.43;4.93;;;;;;;13.85;83.66;97142.06;5073069;28;20187;-66
2021/09/02 04:17:04;;;;;;;5.27;4.77;;;;;;;13.82;83.60;97134.59;5073504;28;20228;-66
2021/09/02 04:19:29;;;;;;;11.40;5.47;;;;;;;13.81;83.39;97138.25;5073269;28;20166;-61
2021/09/02 04:21:55;;;;;;;6.87;5.40;;;;;;;13.82;83.32;97145.97;5057357;28;20183;-66
2021/09/02 04:24:20;;;;;;;6.10;5.23;;;;;;;13.82;83.25;97137.25;5052697;28;20183;-61
2021/09/02 04:26:46;;;;;;;6.23;5.63;;;;;;;13.70;83.88;97146.94;5053190;28;20305;-61
2021/09/02 04:29:11;;;;;;;6.47;5.80;;;;;;;13.61;84.77;97143.03;5053412;28;20175;-61
2021/09/02 04:31:37;;;;;;;6.47;5.80;;;;;;;13.69;84.13;97140.06;5056908;28;20171;-61
2021/09/02 04:34:02;;;;;;;6.40;5.80;;;;;;;13.69;84.26;97138.25;5056990;28;20178;-66
2021/09/02 04:36:28;;;;;;;6.40;5.90;;;;;;;13.65;84.28;97129.16;5071089;28;20199;-61
2021/09/02 04:38:53;;;;;;;6.20;5.60;;;;;;;13.71;83.46;97130.09;5077204;28;20232;-61
2021/09/02 04:41:18;;;;;;;6.23;5.53;;;;;;;13.69;83.60;97138.25;5075959;28;20244;-66
2021/09/02 04:43:44;;;;;;;6.30;5.70;;;;;;;13.68;83.92;97139.25;5077026;28;20170;-66
2021/09/02 04:46:11;;;;;;;6.50;5.20;;;;;;;13.63;83.87;97136.50;5077225;28;20230;-61
2021/09/02 04:48:37;;;;;;;6.70;6.10;;;;;;;13.59;84.58;97145.09;5077226;28;20163;-61
2021/09/02 04:51:03;;;;;;;8.03;6.80;;;;;;;13.39;86.46;97154.09;5063859;28;20505;-66
2021/09/02 04:53:28;;;;;;;6.90;6.20;;;;;;;13.48;85.73;97149.28;5056560;28;20559;-66
2021/09/02 04:55:54;;;;;;;8.50;6.60;;;;;;;13.58;85.24;97143.47;5075682;28;20194;-66
2021/09/02 04:58:19;;;;;;;7.70;7.00;;;;;;;13.66;84.62;97143.19;5075288;28;20261;-61
2021/09/02 05:00:45;;;;;;;7.50;6.23;;;;;;;13.80;83.79;97141.94;5056913;28;20180;-64
2021/09/02 05:03:10;;;;;;;8.37;6.10;;;;;;;13.62;84.73;97137.53;5056624;28;20182;-61
2021/09/02 05:05:36;;;;;;;7.37;6.20;;;;;;;13.52;85.14;97145.19;5056825;28;20336;-66
2021/09/02 05:08:03;;;;;;;6.37;5.77;;;;;;;13.58;85.19;97146.13;5056893;28;20190;-61
2021/09/02 05:10:28;;;;;;;6.10;5.50;;;;;;;13.72;84.53;97145.72;5056657;28;20170;-61
2021/09/02 05:12:53;;;;;;;7.53;5.97;;;;;;;13.70;85.05;97153.03;5057506;28;21184;-61
2021/09/02 05:15:19;;;;;;;8.53;6.50;;;;;;;13.62;85.38;97158.66;5076467;28;20205;-66
2021/09/02 05:17:45;;;;;;;6.57;5.87;;;;;;;13.67;85.23;97156.16;5076760;28;20265;-66
2021/09/02 05:20:12;;;;;;;8.80;6.80;;;;;;;13.78;84.90;97152.75;5076374;28;20171;-61
2021/09/02 05:22:37;;;;;;;6.60;6.00;;;;;;;13.79;84.44;97148.25;5076136;28;20772;-62
2021/09/02 05:25:04;;;;;;;6.90;6.10;;;;;;;13.73;85.11;97154.44;5076160;28;20428;-66
2021/09/02 05:27:30;;;;;;;7.70;6.13;;;;;;;13.78;85.19;97155.38;5075734;28;20293;-66
2021/09/02 05:29:55;;;;;;;8.03;6.67;;;;;;;13.85;84.93;97150.81;5056357;28;20486;-61
2021/09/02 05:32:21;;;;;;;7.47;6.33;;;;;;;13.91;85.27;97147.25;5056492;28;20167;-66
2021/09/02 05:34:46;;;;;;;7.67;6.93;;;;;;;13.91;85.41;97154.38;5055928;28;20199;-66
2021/09/02 05:37:11;;;;;;;7.10;6.40;;;;;;;13.93;85.24;97150.47;5055008;28;20175;-61
2021/09/02 05:39:37;;;;;;;6.30;5.70;;;;;;;13.98;85.09;97149.78;5056382;28;20225;-61
2021/09/02 05:42:03;;;;;;;7.30;5.90;;;;;;;13.91;85.69;97152.53;5055448;28;20175;-61
2021/09/02 05:44:28;;;;;;;7.07;6.40;;;;;;;13.79;87.04;97149.06;5074193;28;20700;-61
2021/09/02 05:46:55;;;;;;;7.57;6.87;;;;;;;14.01;86.63;97151.97;5075887;28;20210;-66
2021/09/02 05:49:20;;;;;;;6.07;5.50;;;;;;;14.12;86.43;97146.72;5076165;28;20678;-66
2021/09/02 05:51:46;;;;;;;7.27;6.57;;;;;;;14.01;87.05;97147.50;5075847;28;20405;-66
2021/09/02 05:54:11;;;;;;;6.70;5.83;;;;;;;14.02;87.47;97137.75;5075538;28;20173;-61
2021/09/02 05:56:36;;;;;;;7.30;6.60;;;;;;;14.10;87.98;97140.84;5076079;28;20617;-66
2021/09/02 05:59:02;;;;;;;9.60;7.13;;;;;;;14.19;88.04;97144.75;5061945;28;20187;-62
2021/09/02 06:01:27;;;;;;;8.60;7.10;;;;;;;14.24;87.88;97147.53;5067877;28;20190;-61
2021/09/02 06:03:52;;;;;;;8.30;7.57;;;;;;;14.38;87.62;97154.22;5075347;28;20641;-66
2021/09/02 06:06:18;;;;;;;8.57;7.50;;;;;;;14.45;88.04;97135.59;5075477;28;20563;-66
2021/09/02 06:08:43;;;;;;;9.63;8.33;;;;;;;14.52;88.29;97143.41;5075529;28;20206;-61
2021/09/02 06:11:09;;;;;;;10.20;9.07;;;;;;;14.66;88.06;97148.22;5074432;28;20171;-66
2021/09/02 06:13:35;;;;;;;11.03;10.00;;;;;;;14.66;89.16;97147.41;5053806;28;20175;-61
2021/09/02 06:16:01;;;;;;;14.37;11.10;;;;;;;14.66;89.82;97142.13;5054191;28;20282;-66
2021/09/02 06:18:27;;;;;;;11.13;10.03;;;;;;;14.80;89.76;97148.81;5055528;28;20405;-61
2021/09/02 06:20:52;;;;;;;11.67;10.53;;;;;;;14.88;89.83;97149.25;5055554;28;20426;-66
2021/09/02 06:23:18;;;;;;;13.17;10.70;;;;;;;14.96;89.68;97150.72;5054963;28;20437;-66
2021/09/02 06:25:43;;;;;;;11.43;10.03;;;;;;;15.09;89.72;97151.25;5055033;28;20268;-66
2021/09/02 06:28:09;;;;;;;12.67;9.90;;;;;;;15.14;89.60;97148.75;5055244;28;20268;-61
2021/09/02 06:30:34;;;;;;;11.80;9.97;;;;;;;15.18;89.62;97154.38;5080202;28;20178;-66
2021/09/02 06:33:00;;;;;;;12.43;9.63;;;;;;;15.24;89.71;97159.53;5095092;28;20246;-66
2021/09/02 06:35:25;;;;;;;11.53;10.33;;;;;;;15.25;90.06;97162.97;5080761;28;20213;-62
2021/09/02 06:37:51;;;;;;;11.00;10.00;;;;;;;15.35;89.64;97160.50;5061546;28;20179;-66
2021/09/02 06:40:16;;;;;;;10.87;9.77;;;;;;;15.43;89.76;97162.84;5055020;28;20172;-66
2021/09/02 06:42:42;;;;;;;11.00;9.97;;;;;;;15.46;89.84;97162.34;5054736;28;20515;-66
2021/09/02 06:45:08;;;;;;;10.17;9.17;;;;;;;15.56;89.46;97159.91;5054769;28;20233;-66
2021/09/02 06:47:33;;;;;;;12.77;10.57;;;;;;;15.62;89.67;97168.75;5055078;28;20210;-61
2021/09/02 06:50:00;;;;;;;10.00;9.13;;;;;;;15.67;89.34;97159.03;5054830;28;20418;-66
2021/09/02 06:52:26;;;;;;;11.17;10.07;;;;;;;15.60;89.91;97173.50;5062688;28;20178;-66
2021/09/02 06:54:51;;;;;;;11.97;10.60;;;;;;;15.68;89.95;97173.91;5063380;28;20441;-66
2021/09/02 06:57:17;;;;;;;11.60;10.60;;;;;;;15.74;90.03;97169.50;5073318;28;20850;-66
2021/09/02 06:59:43;;;;;;;11.60;10.50;;;;;;;15.76;89.57;97172.72;5074648;28;20182;-63
2021/09/02 07:02:08;;;;;;;11.13;10.03;;;;;;;15.79;89.89;97174.88;5074608;28;20405;-62
2021/09/02 07:04:33;;;;;;;10.87;9.77;;;;;;;15.77;90.05;97169.81;5073968;28;20672;-62
2021/09/02 07:06:59;;;;;;;11.40;10.30;;;;;;;15.88;89.67;97168.97;5073608;28;20203;-62
2021/09/02 07:09:24;;;;;;;11.50;10.30;;;;;;;16.03;89.15;97179.81;5074486;28;20254;-62
2021/09/02 07:11:49;;;;;;;12.83;10.70;;;;;;;16.02;89.60;97172.09;5074314;28;20182;-62
2021/09/02 07:14:15;;;;;;;10.50;9.33;;;;;;;16.11;89.31;97176.78;5074192;28;20174;-63
2021/09/02 07:16:40;;;;;;;11.70;10.50;;;;;;;16.17;89.27;97173.19;5074458;28;20171;-63
2021/09/02 07:19:05;;;;;;;10.17;9.27;;;;;;;16.23;89.01;97168.75;5074326;28;20171;-62
2021/09/02 07:21:31;;;;;;;10.57;9.60;;;;;;;16.27;88.10;97175.97;5074373;28;20228;-62
2021/09/02 07:23:56;;;;;;;10.23;8.63;;;;;;;16.42;87.90;97175.41;5054311;28;20588;-63
2021/09/02 07:26:22;;;;;;;9.37;8.50;;;;;;;16.49;87.24;97186.69;5054110;28;20195;-61
2021/09/02 07:28:47;;;;;;;10.83;9.77;;;;;;;16.54;87.19;97181.47;5054002;28;20301;-62
2021/09/02 07:31:13;;;;;;;10.67;9.67;;;;;;;16.51;87.43;97184.59;5054183;28;20175;-62
2021/09/02 07:33:38;;;;;;;9.33;8.53;;;;;;;16.52;87.37;97180.94;5053631;28;20641;-61
2021/09/02 07:36:04;;;;;;;11.87;10.77;;;;;;;16.58;87.54;97184.47;5054016;28;20277;-62
2021/09/02 07:38:29;;;;;;;9.53;8.57;;;;;;;16.61;87.35;97186.63;5071010;28;20663;-62
2021/09/02 07:40:55;;;;;;;9.60;8.70;;;;;;;16.76;87.40;97179.66;5073932;28;20292;-69
2021/09/02 07:43:20;;;;;;;11.80;9.20;;;;;;;16.68;86.96;97185.41;5073482;28;20630;-68
2021/09/02 07:45:46;;;;;;;10.03;9.03;;;;;;;16.74;85.90;97186.28;5073764;28;20195;-68
2021/09/02 07:48:11;;;;;;;9.10;8.20;;;;;;;16.81;85.48;97181.59;5072592;28;20194;-62
2021/09/02 07:50:36;;;;;;;9.27;8.20;;;;;;;16.92;85.95;97186.78;5073606;28;20254;-69
2021/09/02 07:53:02;;;;;;;9.67;8.77;;;;;;;17.04;84.70;97189.34;5057432;28;20175;-68
2021/09/02 07:55:27;;;;;;;8.60;7.70;;;;;;;17.09;85.32;97200.03;5068669;28;20198;-62
2021/09/02 07:57:53;;;;;;;10.23;8.20;;;;;;;17.25;84.91;97199.97;5074008;28;20629;-62
2021/09/02 08:00:19;;;;;;;9.30;8.30;;;;;;;17.36;84.35;97201.72;5073689;28;20228;-62
2021/09/02 08:02:45;;;;;;;8.67;7.90;;;;;;;17.48;84.50;97206.94;5073372;28;20225;-63
2021/09/02 08:05:11;;;;;;;12.90;8.80;;;;;;;17.53;84.64;97200.88;5073093;28;20436;-68
2021/09/02 08:07:52;;;;;;;9.80;8.80;;;;;;;17.64;84.43;97202.59;5072657;28;20461;-62
2021/09/02 08:10:20;;;;;;;12.23;8.30;;;;;;;17.63;83.83;97206.31;5073554;28;20405;-69
2021/09/02 08:12:46;;;;;;;8.77;8.00;;;;;;;17.78;83.48;97204.63;5073136;28;20563;-69
2021/09/02 08:15:12;;;;;;;8.23;7.50;;;;;;;17.90;83.70;97207.16;5073316;28;20441;-69
2021/09/02 08:17:38;;;;;;;8.80;8.00;;;;;;;18.02;83.10;97207.78;5073507;28;20480;-62
2021/09/02 08:20:05;;;;;;;9.37;8.47;;;;;;;18.06;82.61;97214.22;5072082;28;20629;-62
2021/09/02 08:22:30;;;;;;;8.37;7.57;;;;;;;18.08;81.36;97215.56;5057607;28;20417;-69
2021/09/02 08:24:56;;;;;;;8.77;7.80;;;;;;;18.13;81.50;97207.66;5052686;28;20468;-68
2021/09/02 08:27:22;;;;;;;8.20;7.43;;;;;;;18.30;81.31;97213.63;5050185;28;20289;-69
2021/09/02 08:29:48;;;;;;;9.30;8.30;;;;;;;18.46;81.15;97209.28;5049899;28;20441;-62
2021/09/02 08:32:13;;;;;;;8.80;7.90;;;;;;;18.57;80.82;97207.50;5049756;28;20203;-69
2021/09/02 08:34:39;;;;;;;7.90;7.10;;;;;;;18.62;80.32;97207.53;5049283;28;20191;-64
2021/09/02 08:37:04;;;;;;;7.60;6.90;;;;;;;18.63;79.88;97206.47;5063341;28;20182;-68
2021/09/02 08:39:29;;;;;;;10.33;7.10;;;;;;;18.70;79.78;97207.84;5069176;28;20618;-67
2021/09/02 08:41:56;;;;;;;8.93;7.47;;;;;;;18.78;79.85;97204.72;5081847;28;20182;-66
2021/09/02 08:44:23;;;;;;;9.50;7.83;;;;;;;18.94;79.29;97203.75;5089538;28;20205;-63
2021/09/02 08:46:48;;;;;;;8.17;7.23;;;;;;;19.04;79.36;97195.03;5089619;28;20527;-63
2021/09/02 08:49:23;;;;;;;9.53;7.30;;;;;;;19.03;78.98;97196.06;5089727;28;20565;-67
2021/09/02 08:51:50;;;;;;;7.87;6.87;;;;;;;19.01;78.00;97196.34;5074166;28;20179;-67
2021/09/02 08:54:17;;;;;;;9.40;8.50;;;;;;;19.00;78.02;97197.41;5068984;28;20420;-63
2021/09/02 08:56:42;;;;;;;7.77;6.90;;;;;;;19.15;76.87;97197.47;5069423;28;20781;-64
2021/09/02 08:59:07;;;;;;;9.10;7.70;;;;;;;19.25;76.93;97200.22;5069739;28;20420;-62
2021/09/02 09:01:33;;;;;;;8.27;7.47;;;;;;;19.45;76.45;97191.53;5069465;28;20688;-65
2021/09/02 09:04:08;;;;;;;7.77;6.97;;;;;;;19.47;76.68;97186.72;5070306;28;20643;-67
2021/09/02 09:06:33;;;;;;;7.63;6.83;;;;;;;19.63;76.86;97190.25;5059666;28;20202;-62
2021/09/02 09:08:59;;;;;;;8.00;7.20;;;;;;;19.64;75.01;97194.53;5060857;28;20424;-67
2021/09/02 09:11:29;;;;;;;7.20;6.50;;;;;;;19.60;73.14;97188.09;5072992;28;20676;-67
2021/09/02 09:14:03;;;;;;;7.80;7.00;;;;;;;19.58;74.23;97195.56;5072497;28;20175;-62
2021/09/02 09:16:50;;;;;;;7.93;7.13;;;;;;;19.70;74.51;97190.78;5072921;28;20412;-62
2021/09/02 09:19:42;;;;;;;10.00;7.53;;;;;;;19.91;73.60;97192.47;5076671;28;21020;-61
2021/09/02 09:22:11;;;;;;;7.40;6.70;;;;;;;20.03;72.82;97190.34;5076362;28;20792;-62
2021/09/02 09:24:43;;;;;;;8.00;6.97;;;;;;;20.10;71.89;97185.53;5072331;28;20452;-61
2021/09/02 09:27:09;;;;;;;7.63;6.93;;;;;;;20.22;71.24;97189.59;5083392;28;20494;-67
2021/09/02 09:29:34;;;;;;;7.30;6.50;;;;;;;20.31;70.43;97182.66;5073267;28;20413;-66
2021/09/02 09:32:18;;;;;;;7.43;6.83;;;;;;;20.44;71.56;97186.66;5072797;28;20171;-62
2021/09/02 09:34:52;;;;;;;6.70;6.10;;;;;;;20.45;69.37;97177.59;5072369;28;20198;-62
2021/09/02 09:37:19;;;;;;;6.90;6.30;;;;;;;20.49;69.67;97171.44;5072712;28;20781;-67
2021/09/02 09:39:45;;;;;;;7.60;6.63;;;;;;;20.61;69.94;97168.50;5072628;28;20416;-67
2021/09/02 09:42:11;;;;;;;8.60;6.77;;;;;;;20.80;68.77;97168.75;5072604;28;20431;-65
2021/09/02 09:44:40;;;;;;;7.70;7.00;;;;;;;20.95;68.00;97164.16;5069015;28;20206;-63
2021/09/02 09:47:09;;;;;;;7.80;7.10;;;;;;;21.09;66.43;97162.53;5052555;28;20466;-66
2021/09/02 09:49:55;;;;;;;6.67;6.00;;;;;;;21.20;67.44;97160.63;5052549;28;20416;-65
2021/09/02 09:52:27;;;;;;;7.27;6.30;;;;;;;21.42;67.40;97159.19;5051888;28;20485;-62
2021/09/02 09:54:59;;;;;;;6.67;5.90;;;;;;;21.47;67.69;97166.38;5068558;28;20457;-67
2021/09/02 09:57:29;;;;;;;11.43;6.90;;;;;;;21.23;66.18;97160.09;5072340;28;20439;-67
2021/09/02 09:59:59;;;;;;;7.87;7.00;;;;;;;21.11;64.46;97157.72;5072303;28;20463;-65
2021/09/02 10:02:25;;;;;;;7.50;6.73;;;;;;;21.21;65.78;97154.22;5072363;28;20427;-63
2021/09/02 10:04:51;;;;;;;8.53;6.73;;;;;;;21.34;67.19;97151.72;5070708;28;20440;-63
2021/09/02 10:07:20;;;;;;;6.57;5.83;;;;;;;21.48;67.44;97157.31;5072037;28;20464;-64
2021/09/02 10:09:46;;;;;;;7.70;5.87;;;;;;;21.52;64.89;97162.91;5072124;28;20444;-65
2021/09/02 10:12:12;;;;;;;8.37;5.87;;;;;;;21.68;65.55;97159.88;5071948;28;20412;-64
2021/09/02 10:14:38;;;;;;;6.40;5.80;;;;;;;21.69;64.24;97157.97;5071563;28;20429;-69
2021/09/02 10:17:03;;;;;;;8.27;6.10;;;;;;;21.76;65.40;97155.81;5072039;28;20174;-68
2021/09/02 10:19:33;;;;;;;6.60;5.90;;;;;;;22.02;65.21;97158.09;5072005;28;20664;-72
2021/09/02 10:21:59;;;;;;;7.70;6.90;;;;;;;22.01;61.78;97159.16;5071823;28;20173;-69
2021/09/02 10:24:31;;;;;;;6.50;5.90;;;;;;;22.14;63.30;97150.50;5070313;28;20842;-67
2021/09/02 10:26:57;;;;;;;6.93;6.13;;;;;;;21.89;62.17;97148.00;5071630;28;20863;-65
2021/09/02 10:29:36;;;;;;;8.33;5.63;;;;;;;22.06;64.88;97143.06;5061555;28;20436;-67
2021/09/02 10:32:24;;;;;;;7.43;6.73;;;;;;;21.91;60.70;97148.53;5059771;28;20225;-66
2021/09/02 10:34:50;;;;;;;6.23;5.73;;;;;;;22.28;61.07;97146.09;5059892;28;20433;-66
2021/09/02 10:37:45;;;;;;;6.53;5.83;;;;;;;22.30;61.98;97143.16;5062753;28;20511;-67
2021/09/02 10:40:16;;;;;;;6.07;5.47;;;;;;;22.41;58.28;97145.44;5058577;28;20488;-68
2021/09/02 10:42:46;;;;;;;7.87;5.87;;;;;;;22.71;58.58;97143.59;5058560;28;20428;-69
2021/09/02 10:45:30;;;;;;;6.60;6.03;;;;;;;22.84;58.91;97140.25;5051432;28;20434;-68
2021/09/02 10:48:04;;;;;;;6.10;5.50;;;;;;;22.85;57.83;97129.25;5070016;28;20486;-67
2021/09/02 10:50:41;;;;;;;5.80;5.30;;;;;;;22.87;61.52;97129.75;5089044;28;20898;-69
2021/09/02 10:53:11;;;;;;;5.93;5.37;;;;;;;22.92;60.84;97134.28;5090718;28;20416;-68
2021/09/02 10:55:40;;;;;;;6.30;5.80;;;;;;;23.03;59.45;97131.19;5073901;28;20444;-69
2021/09/02 10:58:08;;;;;;;6.10;5.50;;;;;;;22.90;57.98;97123.81;5071199;28;20887;-67
2021/09/02 11:00:41;;;;;;;5.80;5.30;;;;;;;23.05;56.12;97128.22;5071179;28;20416;-68
2021/09/02 11:03:13;;;;;;;6.43;5.83;;;;;;;23.07;58.99;97115.31;5070940;28;20437;-66
2021/09/02 11:05:46;;;;;;;6.00;5.50;;;;;;;23.26;58.68;97108.13;5073589;28;20425;-62
2021/09/02 11:08:11;;;;;;;5.70;5.20;;;;;;;23.45;56.54;97117.03;5073536;28;20442;-63
2021/09/02 11:10:37;;;;;;;6.23;5.53;;;;;;;23.70;58.48;97113.22;5065423;28;20520;-65
2021/09/02 11:13:07;;;;;;;6.30;4.77;;;;;;;23.77;56.29;97117.09;5074035;28;20632;-65
2021/09/02 11:15:35;;;;;;;5.33;4.63;;;;;;;23.95;54.53;97118.19;5074432;28;20518;-63
2021/09/02 11:18:05;;;;;;;5.80;5.30;;;;;;;23.96;55.09;97119.78;5074380;28;20408;-63
2021/09/02 11:20:35;;;;;;;5.73;5.23;;;;;;;24.02;52.44;97113.28;5074433;28;20413;-62
2021/09/02 11:23:11;;;;;;;4.33;4.03;;;;;;;24.09;55.95;97111.81;5073980;28;20740;-63
2021/09/02 11:25:49;;;;;;;5.30;4.87;;;;;;;24.32;54.26;97099.34;5070584;28;20464;-65
2021/09/02 11:28:18;;;;;;;5.90;5.30;;;;;;;24.43;53.03;97098.09;5074056;28;20916;-65
2021/09/02 11:30:44;;;;;;;4.97;4.57;;;;;;;24.49;56.17;97103.06;5073972;28;20409;-63